Terminal Aerodrome Forecast
Issued by NWS Sterling, VA

Current Version | Previous Version | Graphics & Text | Print | Product List | Glossary On
Versions: 1 2 3 4 5 6 7 8 9 10 11 12 13 14 15 16 17 18 19 20 21 22 23 24 25 26
994
FTUS41 KLWX 240536
TAFMRB
TAF
KMRB 240536Z 2406/2506 VRB03KT 6SM BR VCSH BKN040
     FM240900 26004KT 3SM BR FEW001 BKN060
     FM241200 29007KT P6SM BKN050
     FM250000 28005KT P6SM SCT060=

USA.gov is the U.S. government's official web portal to all federal, state and local government web resources and services.